createdAt,value
2018-06-21T00:01:15.260Z,8.00
2018-06-21T00:03:42.757Z,7.27
2018-06-21T00:06:10.325Z,7.03
2018-06-21T00:08:37.828Z,7.53
2018-06-21T00:11:05.420Z,7.50
2018-06-21T00:13:32.899Z,7.37
2018-06-21T00:16:00.453Z,7.70
2018-06-21T00:18:27.943Z,8.43
2018-06-21T00:20:55.396Z,7.30
2018-06-21T00:23:22.839Z,7.80
2018-06-21T00:25:50.291Z,6.63
2018-06-21T00:28:17.718Z,7.33
2018-06-21T00:30:45.231Z,7.37
2018-06-21T00:33:12.685Z,7.10
2018-06-21T00:35:40.088Z,7.50
2018-06-21T00:38:07.655Z,7.30
2018-06-21T00:40:35.153Z,7.03
2018-06-21T00:43:02.615Z,6.70
2018-06-21T00:45:30.129Z,7.00
2018-06-21T00:47:57.558Z,7.27
2018-06-21T00:50:24.993Z,5.77
2018-06-21T00:52:52.481Z,6.60
2018-06-21T00:55:31.364Z,7.60
2018-06-21T00:57:58.824Z,7.53
2018-06-21T01:00:26.313Z,6.90
2018-06-21T01:02:53.783Z,7.03
2018-06-21T01:05:21.264Z,6.40
2018-06-21T01:07:48.815Z,7.10
2018-06-21T01:10:16.281Z,7.17
2018-06-21T01:12:43.755Z,7.90
2018-06-21T01:15:11.381Z,6.97
2018-06-21T01:17:38.933Z,7.97
2018-06-21T01:20:06.377Z,7.80
2018-06-21T01:22:33.832Z,8.33
2018-06-21T01:25:01.379Z,9.70
2018-06-21T01:27:28.908Z,8.47
2018-06-21T01:29:56.588Z,7.30
2018-06-21T01:32:24.107Z,7.67
2018-06-21T01:34:51.564Z,7.67
2018-06-21T01:37:19.244Z,7.67
2018-06-21T01:39:46.755Z,6.47
2018-06-21T01:42:14.224Z,8.00
2018-06-21T01:44:41.651Z,6.60
2018-06-21T01:47:09.251Z,6.67
2018-06-21T01:49:36.819Z,7.83
2018-06-21T01:52:04.384Z,7.80
2018-06-21T01:54:31.851Z,7.30
2018-06-21T01:56:59.278Z,7.23
2018-06-21T01:59:26.919Z,8.00
2018-06-21T02:01:54.371Z,8.30
2018-06-21T02:04:21.924Z,7.47
2018-06-21T02:06:49.437Z,8.27
2018-06-21T02:09:16.870Z,8.60
2018-06-21T02:11:44.323Z,8.23
2018-06-21T02:14:11.896Z,8.00
2018-06-21T02:16:39.289Z,8.13
2018-06-21T02:19:06.805Z,9.63
2018-06-21T02:21:34.238Z,9.50
2018-06-21T02:24:01.711Z,9.53
2018-06-21T02:26:29.240Z,9.70
2018-06-21T02:28:56.659Z,9.07
2018-06-21T02:31:24.115Z,9.90
2018-06-21T02:33:51.611Z,9.50
2018-06-21T02:36:19.056Z,10.13
2018-06-21T02:38:46.750Z,9.70
2018-06-21T02:41:14.219Z,9.50
2018-06-21T02:43:41.665Z,11.10
2018-06-21T02:46:09.291Z,9.60
2018-06-21T02:48:36.764Z,10.20
2018-06-21T02:51:04.208Z,9.80
2018-06-21T02:53:31.703Z,9.47
2018-06-21T02:55:59.177Z,9.87
2018-06-21T02:58:26.641Z,12.90
2018-06-21T03:00:54.097Z,14.40
2018-06-21T03:03:21.523Z,9.50
2018-06-21T03:05:48.966Z,19.20
2018-06-21T03:08:16.481Z,12.57
2018-06-21T03:10:43.935Z,22.03
2018-06-21T03:13:11.619Z,27.27
2018-06-21T03:15:39.057Z,9.10
2018-06-21T03:18:06.528Z,9.37
2018-06-21T03:20:34.028Z,7.50
2018-06-21T03:23:01.535Z,8.90
2018-06-21T03:25:29.028Z,9.50
2018-06-21T03:27:56.804Z,9.10
2018-06-21T03:30:24.379Z,8.93
2018-06-21T03:32:51.969Z,8.53
2018-06-21T03:35:19.439Z,9.67
2018-06-21T03:37:46.908Z,10.13
2018-06-21T03:40:14.496Z,9.70
2018-06-21T03:42:41.932Z,9.30
2018-06-21T03:45:09.360Z,9.87
2018-06-21T03:47:36.945Z,10.60
2018-06-21T03:50:04.392Z,9.93
2018-06-21T03:52:31.923Z,9.93
2018-06-21T03:55:00.404Z,9.57
2018-06-21T03:57:27.891Z,10.60
2018-06-21T03:59:55.555Z,9.60
2018-06-21T04:02:22.972Z,9.63
2018-06-21T04:04:50.487Z,10.10
2018-06-21T04:07:18.048Z,9.83
2018-06-21T04:09:45.515Z,9.57
2018-06-21T04:12:12.988Z,9.63
2018-06-21T04:14:40.440Z,9.70
2018-06-21T04:17:07.898Z,9.50
2018-06-21T04:19:35.417Z,11.33
2018-06-21T04:22:03.100Z,10.53
2018-06-21T04:24:30.544Z,10.70
2018-06-21T04:26:58.064Z,11.33
2018-06-21T04:29:25.495Z,11.20
2018-06-21T04:31:53.232Z,10.80
2018-06-21T04:34:20.764Z,12.03
2018-06-21T04:36:48.192Z,12.40
2018-06-21T04:39:19.573Z,10.73
2018-06-21T04:41:47.018Z,10.70
2018-06-21T04:44:14.494Z,10.60
2018-06-21T04:46:42.156Z,9.80
2018-06-21T04:49:09.697Z,9.70
2018-06-21T04:51:37.313Z,10.40
2018-06-21T04:54:04.948Z,10.27
2018-06-21T04:56:32.535Z,10.40
2018-06-21T04:58:59.975Z,8.93
2018-06-21T05:01:27.958Z,10.43
2018-06-21T05:03:55.482Z,10.83
2018-06-21T05:06:23.349Z,9.97
2018-06-21T05:08:50.865Z,10.70
2018-06-21T05:11:18.367Z,10.77
2018-06-21T05:13:45.829Z,11.23
2018-06-21T05:16:13.356Z,10.60
2018-06-21T05:18:40.825Z,10.93
2018-06-21T05:21:08.376Z,10.87
2018-06-21T05:23:35.843Z,11.37
2018-06-21T05:26:03.318Z,12.27
2018-06-21T05:28:30.810Z,12.53
2018-06-21T05:30:58.345Z,12.00
2018-06-21T05:33:25.766Z,12.80
2018-06-21T05:35:53.347Z,13.37
2018-06-21T05:38:20.792Z,15.57
2018-06-21T05:40:48.242Z,14.80
2018-06-21T05:43:15.689Z,16.90
2018-06-21T05:45:43.399Z,17.60
2018-06-21T05:48:10.877Z,17.40
2018-06-21T05:50:38.379Z,19.17
2018-06-21T05:53:05.829Z,22.30
2018-06-21T05:55:33.924Z,23.97
2018-06-21T05:58:02.527Z,21.57
2018-06-21T06:00:30.322Z,21.60
2018-06-21T06:02:57.787Z,24.43
2018-06-21T06:05:25.260Z,25.30
2018-06-21T06:07:52.674Z,24.83
2018-06-21T06:10:21.329Z,23.80
2018-06-21T06:12:48.804Z,25.00
2018-06-21T06:15:16.300Z,23.43
2018-06-21T06:17:43.727Z,24.90
2018-06-21T06:20:11.457Z,24.30
2018-06-21T06:22:38.950Z,24.20
2018-06-21T06:25:06.687Z,26.80
2018-06-21T06:27:34.191Z,25.73
2018-06-21T06:30:01.658Z,26.53
2018-06-21T06:32:29.094Z,27.87
2018-06-21T06:34:56.500Z,26.70
2018-06-21T06:37:23.999Z,28.70
2018-06-21T06:39:51.482Z,25.23
2018-06-21T06:42:18.915Z,21.67
2018-06-21T06:44:46.435Z,19.03
2018-06-21T06:47:14.300Z,15.27
2018-06-21T06:49:42.018Z,12.17
2018-06-21T06:52:09.588Z,12.90
2018-06-21T06:54:37.195Z,11.50
2018-06-21T06:57:04.637Z,11.97
2018-06-21T06:59:32.469Z,13.27
2018-06-21T07:01:59.976Z,13.40
2018-06-21T07:04:27.464Z,14.20
2018-06-21T07:06:54.951Z,15.63
2018-06-21T07:09:22.426Z,16.70
2018-06-21T07:11:49.903Z,15.93
2018-06-21T07:14:17.359Z,16.20
2018-06-21T07:16:45.784Z,15.50
2018-06-21T07:19:13.342Z,16.83
2018-06-21T07:21:40.856Z,19.20
2018-06-21T07:24:08.996Z,19.07
2018-06-21T07:26:37.277Z,18.30
2018-06-21T07:29:04.756Z,18.03
2018-06-21T07:31:32.220Z,18.70
2018-06-21T07:33:59.661Z,20.50
2018-06-21T07:36:27.085Z,18.73
2018-06-21T07:38:54.619Z,20.67
2018-06-21T07:41:22.062Z,21.03
2018-06-21T07:43:49.496Z,21.30
2018-06-21T07:46:17.072Z,22.90
2018-06-21T07:48:44.577Z,23.03
2018-06-21T07:51:12.223Z,22.60
2018-06-21T07:53:39.680Z,21.70
2018-06-21T07:56:07.211Z,20.20
2018-06-21T07:58:34.665Z,18.33
2018-06-21T08:01:02.142Z,18.77
2018-06-21T08:03:29.944Z,18.30
2018-06-21T08:05:57.812Z,14.77
2018-06-21T08:08:25.402Z,15.47
2018-06-21T08:10:52.876Z,16.80
2018-06-21T08:13:20.382Z,17.27
2018-06-21T08:15:47.873Z,16.33
2018-06-21T08:18:15.329Z,12.37
2018-06-21T08:20:42.885Z,12.10
2018-06-21T08:23:10.542Z,12.80
2018-06-21T08:25:38.112Z,10.77
2018-06-21T08:28:05.677Z,11.40
2018-06-21T08:30:33.185Z,10.87
2018-06-21T08:33:00.652Z,10.50
2018-06-21T08:35:28.124Z,10.70
2018-06-21T08:37:55.555Z,11.23
2018-06-21T08:40:23.016Z,9.80
2018-06-21T08:42:50.449Z,9.20
2018-06-21T08:45:17.908Z,8.43
2018-06-21T08:47:45.430Z,9.43
2018-06-21T08:50:13.096Z,8.27
2018-06-21T08:52:40.552Z,9.30
2018-06-21T08:55:08.023Z,7.60
2018-06-21T08:57:35.438Z,8.80
2018-06-21T09:00:02.974Z,7.17
2018-06-21T09:02:30.742Z,6.57
2018-06-21T09:04:58.178Z,6.73
2018-06-21T09:07:25.819Z,5.33
2018-06-21T09:09:57.794Z,5.50
2018-06-21T09:12:30.553Z,4.33
2018-06-21T09:14:57.988Z,4.50
2018-06-21T09:17:25.529Z,4.67
2018-06-21T09:19:52.979Z,3.37
2018-06-21T09:22:26.356Z,3.00
2018-06-21T09:24:53.823Z,2.63
2018-06-21T09:27:21.363Z,3.63
2018-06-21T09:29:48.798Z,2.50
2018-06-21T09:32:16.319Z,3.63
2018-06-21T09:34:47.841Z,3.80
2018-06-21T09:37:20.584Z,2.60
2018-06-21T09:40:05.666Z,2.43
2018-06-21T09:42:40.406Z,2.07
2018-06-21T09:45:07.644Z,1.80
2018-06-21T09:47:40.759Z,1.90
2018-06-21T09:50:09.501Z,2.70
2018-06-21T09:52:36.855Z,2.30
2018-06-21T09:55:04.287Z,2.37
2018-06-21T09:57:31.741Z,2.50
2018-06-21T09:59:59.155Z,2.73
2018-06-21T10:02:26.715Z,2.57
2018-06-21T10:04:54.401Z,2.30
2018-06-21T10:07:27.148Z,2.30
2018-06-21T10:09:55.398Z,2.10
2018-06-21T10:12:22.884Z,2.07
2018-06-21T10:14:50.535Z,1.70
2018-06-21T10:17:18.197Z,1.70
2018-06-21T10:19:45.830Z,1.77
2018-06-21T10:22:16.385Z,1.93
2018-06-21T10:24:43.797Z,1.87
2018-06-21T10:27:11.452Z,1.40
2018-06-21T10:29:39.425Z,1.80
2018-06-21T10:32:07.092Z,1.43
2018-06-21T10:34:34.535Z,2.03
2018-06-21T10:37:01.976Z,1.70
2018-06-21T10:39:29.448Z,1.67
2018-06-21T10:41:56.892Z,2.43
2018-06-21T10:44:24.328Z,2.50
2018-06-21T10:46:51.764Z,2.30
2018-06-21T10:49:19.176Z,3.00
2018-06-21T10:51:46.644Z,2.20
2018-06-21T10:54:14.108Z,1.83
2018-06-21T10:56:41.608Z,2.60
2018-06-21T10:59:09.046Z,2.70
2018-06-21T11:01:36.513Z,2.20
2018-06-21T11:04:04.056Z,2.27
2018-06-21T11:06:31.454Z,1.87
2018-06-21T11:08:58.979Z,2.23
2018-06-21T11:11:26.455Z,1.83
2018-06-21T11:13:54.013Z,2.10
2018-06-21T11:16:21.456Z,1.70
2018-06-21T11:18:48.916Z,1.93
2018-06-21T11:21:16.378Z,1.50
2018-06-21T11:23:43.836Z,1.83
2018-06-21T11:26:11.460Z,1.60
2018-06-21T11:28:38.985Z,1.77
2018-06-21T11:31:06.399Z,1.70
2018-06-21T11:33:33.852Z,1.77
2018-06-21T11:36:01.311Z,1.50
2018-06-21T11:38:28.768Z,1.30
2018-06-21T11:40:56.241Z,1.50
2018-06-21T11:43:23.694Z,2.33
2018-06-21T11:45:51.172Z,1.57
2018-06-21T11:48:18.652Z,1.90
2018-06-21T11:50:46.227Z,1.40
2018-06-21T11:53:13.798Z,1.53
2018-06-21T11:55:41.239Z,1.57
2018-06-21T11:58:08.707Z,1.30
2018-06-21T12:00:36.135Z,1.60
2018-06-21T12:03:03.669Z,1.90
2018-06-21T12:05:31.100Z,1.30
2018-06-21T12:07:58.528Z,1.53
2018-06-21T12:10:26.000Z,1.37
2018-06-21T12:12:53.455Z,1.40
2018-06-21T12:15:20.909Z,1.23
2018-06-21T12:17:48.441Z,1.30
2018-06-21T12:20:15.987Z,1.60
2018-06-21T12:22:43.450Z,1.20
2018-06-21T12:25:10.967Z,1.20
2018-06-21T12:27:39.197Z,1.33
2018-06-21T12:30:06.668Z,1.10
2018-06-21T12:32:34.105Z,1.50
2018-06-21T12:35:01.601Z,1.67
2018-06-21T12:37:29.048Z,1.53
2018-06-21T12:39:56.495Z,1.50
2018-06-21T12:42:23.935Z,1.60
2018-06-21T12:44:51.401Z,1.10
2018-06-21T12:47:18.845Z,2.13
2018-06-21T12:49:46.359Z,1.60
2018-06-21T12:52:13.794Z,1.10
2018-06-21T12:54:41.283Z,1.40
2018-06-21T12:57:08.895Z,1.50
2018-06-21T12:59:36.428Z,1.50
2018-06-21T13:02:03.923Z,1.87
2018-06-21T13:04:31.447Z,1.27
2018-06-21T13:06:58.896Z,2.03
2018-06-21T13:09:38.021Z,1.50
2018-06-21T13:12:23.289Z,1.57
2018-06-21T13:14:50.729Z,1.30
2018-06-21T13:17:18.347Z,1.73
2018-06-21T13:19:45.793Z,1.13
2018-06-21T13:22:13.354Z,1.33
2018-06-21T13:24:40.779Z,1.40
2018-06-21T13:27:08.284Z,1.40
2018-06-21T13:29:36.388Z,0.93
2018-06-21T13:32:03.840Z,1.90
2018-06-21T13:34:31.307Z,0.97
2018-06-21T13:36:58.992Z,1.10
2018-06-21T13:39:26.390Z,0.87
2018-06-21T13:41:54.012Z,1.40
2018-06-21T13:44:21.457Z,1.23
2018-06-21T13:46:48.940Z,1.77
2018-06-21T13:49:16.400Z,1.10
2018-06-21T13:51:43.823Z,1.27
2018-06-21T13:54:12.069Z,1.33
2018-06-21T13:56:39.527Z,1.40
2018-06-21T13:59:06.982Z,1.10
2018-06-21T14:01:34.386Z,1.57
2018-06-21T14:04:01.857Z,1.07
2018-06-21T14:06:29.317Z,1.30
2018-06-21T14:08:56.832Z,1.73
2018-06-21T14:11:24.488Z,1.20
2018-06-21T14:13:51.883Z,1.80
2018-06-21T14:16:19.312Z,0.90
2018-06-21T14:18:46.882Z,1.00
2018-06-21T14:21:14.704Z,1.37
2018-06-21T14:23:42.239Z,1.10
2018-06-21T14:26:09.606Z,1.10
2018-06-21T14:28:37.285Z,1.20
2018-06-21T14:31:04.911Z,0.97
2018-06-21T14:33:32.433Z,1.40
2018-06-21T14:35:59.987Z,1.37
2018-06-21T14:38:27.536Z,1.37
2018-06-21T14:40:54.975Z,2.50
2018-06-21T14:43:22.671Z,1.20
2018-06-21T14:45:50.319Z,1.43
2018-06-21T14:48:17.864Z,1.40
2018-06-21T14:50:45.440Z,1.37
2018-06-21T14:53:13.338Z,1.50
2018-06-21T14:55:40.792Z,1.00
2018-06-21T14:58:08.263Z,0.87
2018-06-21T15:00:35.924Z,1.00
2018-06-21T15:03:03.358Z,1.03
2018-06-21T15:05:30.797Z,2.10
2018-06-21T15:07:58.206Z,1.30
2018-06-21T15:10:25.863Z,1.37
2018-06-21T15:12:53.319Z,1.40
2018-06-21T15:15:20.839Z,1.60
2018-06-21T15:17:48.292Z,1.20
2018-06-21T15:20:15.769Z,1.30
2018-06-21T15:22:43.218Z,1.00
2018-06-21T15:25:11.204Z,0.90
2018-06-21T15:27:38.659Z,4.73
2018-06-21T15:30:06.212Z,0.90
2018-06-21T15:32:33.675Z,0.90
2018-06-21T15:35:01.194Z,1.07
2018-06-21T15:37:28.683Z,1.10
2018-06-21T15:39:56.164Z,1.20
2018-06-21T15:42:23.582Z,0.90
2018-06-21T15:44:51.250Z,1.13
2018-06-21T15:47:18.715Z,0.90
2018-06-21T15:49:46.227Z,0.70
2018-06-21T15:52:13.688Z,0.70
2018-06-21T15:54:41.268Z,1.00
2018-06-21T15:57:08.757Z,0.90
2018-06-21T15:59:36.190Z,0.70
2018-06-21T16:02:03.649Z,0.80
2018-06-21T16:04:31.347Z,1.00
2018-06-21T16:06:58.781Z,1.00
2018-06-21T16:09:26.414Z,1.10
2018-06-21T16:14:52.162Z,1.20
2018-06-21T16:17:19.968Z,0.93
2018-06-21T16:19:47.584Z,1.10
2018-06-21T16:22:15.260Z,0.97
2018-06-21T16:24:42.984Z,0.80
2018-06-21T16:27:10.498Z,1.13
2018-06-21T16:29:37.893Z,0.90
2018-06-21T16:32:05.276Z,1.13
2018-06-21T16:34:32.656Z,0.70
2018-06-21T16:37:00.034Z,1.10
2018-06-21T16:39:27.410Z,1.40
2018-06-21T16:41:54.781Z,1.73
2018-06-21T16:44:22.239Z,1.73
2018-06-21T16:46:49.652Z,1.60
2018-06-21T16:49:17.064Z,1.30
2018-06-21T16:51:45.089Z,1.10
2018-06-21T16:54:12.596Z,1.20
2018-06-21T16:56:40.047Z,1.00
2018-06-21T16:59:07.615Z,1.30
2018-06-21T17:01:35.023Z,0.70
2018-06-21T17:04:02.907Z,1.13
2018-06-21T17:06:30.761Z,0.83
2018-06-21T17:08:58.196Z,0.60
2018-06-21T17:11:25.949Z,1.00
2018-06-21T17:13:53.401Z,0.50
2018-06-21T17:16:20.991Z,0.70
2018-06-21T17:18:48.527Z,0.50
2018-06-21T17:21:16.074Z,0.73
2018-06-21T17:23:43.429Z,0.50
2018-06-21T17:26:11.078Z,0.60
2018-06-21T17:28:38.521Z,0.63
2018-06-21T17:31:05.876Z,0.70
2018-06-21T17:33:33.294Z,0.70
2018-06-21T17:36:00.643Z,0.60
2018-06-21T17:38:28.139Z,1.03
2018-06-21T17:40:55.475Z,0.60
2018-06-21T17:43:23.031Z,0.87
2018-06-21T17:45:50.399Z,0.93
2018-06-21T17:48:17.776Z,0.77
2018-06-21T17:50:45.212Z,0.90
2018-06-21T17:53:12.896Z,0.70
2018-06-21T17:55:40.322Z,1.43
2018-06-21T17:58:07.729Z,1.67
2018-06-21T18:00:35.118Z,1.00
2018-06-21T18:03:02.497Z,0.90
2018-06-21T18:05:29.908Z,1.13
2018-06-21T18:07:57.304Z,1.50
2018-06-21T18:10:24.765Z,0.87
2018-06-21T18:12:52.189Z,1.10
2018-06-21T18:15:19.575Z,1.33
2018-06-21T18:17:47.004Z,1.33
2018-06-21T18:20:14.363Z,1.73
2018-06-21T18:22:41.732Z,0.93
2018-06-21T18:25:09.095Z,0.93
2018-06-21T18:27:36.508Z,1.30
2018-06-21T18:30:03.989Z,1.70
2018-06-21T18:32:31.396Z,1.50
2018-06-21T18:34:58.782Z,2.17
2018-06-21T18:37:26.142Z,1.50
2018-06-21T18:39:53.591Z,1.50
2018-06-21T18:42:21.267Z,2.87
2018-06-21T18:44:48.818Z,1.40
2018-06-21T18:47:16.244Z,2.43
2018-06-21T18:49:43.671Z,1.50
2018-06-21T18:52:11.191Z,0.97
2018-06-21T18:54:38.633Z,1.30
2018-06-21T18:57:06.048Z,0.83
2018-06-21T18:59:33.541Z,1.37
2018-06-21T19:02:00.980Z,1.90
2018-06-21T19:04:28.378Z,1.03
2018-06-21T19:07:01.482Z,1.73
2018-06-21T19:09:34.660Z,1.63
2018-06-21T19:12:04.439Z,1.30
2018-06-21T19:14:31.849Z,1.20
2018-06-21T19:16:59.376Z,0.90
2018-06-21T19:19:26.968Z,1.37
2018-06-21T19:21:54.978Z,0.80
2018-06-21T19:24:22.379Z,1.00
2018-06-21T19:26:49.776Z,1.00
2018-06-21T19:29:17.234Z,1.17
2018-06-21T19:31:44.621Z,1.53
2018-06-21T19:34:12.314Z,1.27
2018-06-21T19:36:39.730Z,1.30
2018-06-21T19:39:08.247Z,2.50
2018-06-21T19:41:36.518Z,1.27
2018-06-21T19:44:04.067Z,1.17
2018-06-21T19:46:31.627Z,1.50
2018-06-21T19:48:59.154Z,1.03
2018-06-21T19:51:29.064Z,1.10
2018-06-21T19:53:56.439Z,1.13
2018-06-21T19:56:23.912Z,1.47
2018-06-21T19:58:51.439Z,0.93
2018-06-21T20:01:18.842Z,1.30
2018-06-21T20:03:46.996Z,1.40
2018-06-21T20:06:14.707Z,1.13
2018-06-21T20:08:42.121Z,1.40
2018-06-21T20:11:15.090Z,1.17
2018-06-21T20:13:44.906Z,1.10
2018-06-21T20:16:13.071Z,1.57
2018-06-21T20:18:41.683Z,1.50
2018-06-21T20:21:16.135Z,2.17
2018-06-21T20:23:45.740Z,1.10
2018-06-21T20:26:13.491Z,1.10
2018-06-21T20:28:41.340Z,1.20
2018-06-21T20:31:10.312Z,1.20
2018-06-21T20:33:38.279Z,1.20
2018-06-21T20:36:05.644Z,1.10
2018-06-21T20:38:33.177Z,1.93
2018-06-21T20:41:00.823Z,1.50
2018-06-21T20:43:28.456Z,1.47
2018-06-21T20:45:55.836Z,1.17
2018-06-21T20:48:23.300Z,1.37
2018-06-21T20:50:50.677Z,1.53
2018-06-21T20:53:23.012Z,1.27
2018-06-21T20:55:50.468Z,1.60
2018-06-21T20:58:17.919Z,1.77
2018-06-21T21:00:45.393Z,1.97
2018-06-21T21:03:12.941Z,1.40
2018-06-21T21:05:40.414Z,1.27
2018-06-21T21:08:08.036Z,1.17
2018-06-21T21:10:35.421Z,1.37
2018-06-21T21:13:02.825Z,1.27
2018-06-21T21:15:31.681Z,1.40
2018-06-21T21:17:59.220Z,1.70
2018-06-21T21:20:26.662Z,1.50
2018-06-21T21:22:54.036Z,1.53
2018-06-21T21:25:21.508Z,1.40
2018-06-21T21:27:49.013Z,1.70
2018-06-21T21:30:16.392Z,1.77
2018-06-21T21:32:43.726Z,1.57
2018-06-21T21:35:11.334Z,1.20
2018-06-21T21:37:38.795Z,2.37
2018-06-21T21:40:06.804Z,1.50
2018-06-21T21:42:35.416Z,1.20
2018-06-21T21:45:03.039Z,1.73
2018-06-21T21:47:30.400Z,1.43
2018-06-21T21:49:58.081Z,1.43
2018-06-21T21:52:25.493Z,1.53
2018-06-21T21:54:53.047Z,1.60
2018-06-21T21:57:20.643Z,1.60
2018-06-21T21:59:48.513Z,1.20
2018-06-21T22:02:16.515Z,1.67
2018-06-21T22:04:44.436Z,2.70
2018-06-21T22:07:11.964Z,2.07
2018-06-21T22:09:39.486Z,2.20
2018-06-21T22:12:07.185Z,1.57
2018-06-21T22:14:36.820Z,2.10
2018-06-21T22:17:04.298Z,1.70
2018-06-21T22:19:31.662Z,2.03
2018-06-21T22:21:59.054Z,2.17
2018-06-21T22:24:26.688Z,2.30
2018-06-21T22:26:54.067Z,1.70
2018-06-21T22:29:21.503Z,1.93
2018-06-21T22:31:49.231Z,2.03
2018-06-21T22:34:16.594Z,2.83
2018-06-21T22:36:44.098Z,1.67
2018-06-21T22:39:12.607Z,2.07
2018-06-21T22:41:41.043Z,2.20
2018-06-21T22:44:08.420Z,2.20
2018-06-21T22:46:35.807Z,2.50
2018-06-21T22:49:03.267Z,2.17
2018-06-21T22:51:30.732Z,2.27
2018-06-21T22:53:58.144Z,2.20
2018-06-21T22:56:25.851Z,2.23
2018-06-21T22:58:53.274Z,2.37
2018-06-21T23:01:20.720Z,2.33
2018-06-21T23:03:48.166Z,1.90
2018-06-21T23:06:15.604Z,2.20
2018-06-21T23:08:43.102Z,2.10
2018-06-21T23:11:10.610Z,2.03
2018-06-21T23:13:38.056Z,3.07
2018-06-21T23:16:05.681Z,1.70
2018-06-21T23:18:44.515Z,3.10
2018-06-21T23:21:12.067Z,2.10
2018-06-21T23:23:39.467Z,2.07
2018-06-21T23:26:06.923Z,2.73
2018-06-21T23:28:34.395Z,2.60
2018-06-21T23:31:02.730Z,2.03
2018-06-21T23:33:30.739Z,2.43
2018-06-21T23:35:58.467Z,2.20
2018-06-21T23:38:25.931Z,2.33
2018-06-21T23:40:53.564Z,1.50
2018-06-21T23:43:21.175Z,2.97
2018-06-21T23:45:48.602Z,2.30
2018-06-21T23:48:15.988Z,2.40
2018-06-21T23:50:43.425Z,2.47
2018-06-21T23:53:10.886Z,2.57
2018-06-21T23:55:38.378Z,2.37
2018-06-21T23:58:05.902Z,2.20
